Pagrindinis puslapis
METAR-TAF:

METAR-TAF

Oro uostai :

Lamar Municipal Airport

Lamar, Koloradas, Jungtinės Amerikos Valstijos

platuma: 38-04-21N, ilguma: 102-41-12W, Aukštis: 1128 m

Dabartinis oras

Ataskaita buvo paskelbta 26 minutes, ne 02:53 UTC
Vėjas 11 kt iš Rytų
Temperatūra 1°C
Drėgmė 64%
Slėgis 1026 hPa
Matomumas: 16.1 km
Giedras dangus

METAR: KLAA 210253Z AUTO 09011KT 10SM CLR 01/M05 A3031 RMK AO2 SLP291 T00061050 53010

Laikas: 20:19 (03:19 UTC)


TAF: trūkstamas

Orai ataskaitas ir orų prognozės (METAR, TAF).

turimą stotys yra geltonos ir raudonos taškus žemėlapyje.

Perkelti pele per norėdami pamatyti stoties vardą.

Tada spustelėkite, norėdami matyti oro stebėjimo ir prognozės.

Norėdami pakeisti žemėlapį: spustelėkite ant žalios mygtukų su juodo kryžiaus žemyn,; žalią mygtuką su brūkšneliu, jei norite nutolinti; arba žalių rodyklių gretimoms žemėlapius.


METAR-TAF: